createdAt,value
2023-01-20T00:00:47.372Z,25.05
2023-01-20T00:03:14.180Z,25.23
2023-01-20T00:05:50.092Z,25.45
2023-01-20T00:08:17.008Z,24.98
2023-01-20T00:10:43.704Z,24.58
2023-01-20T00:13:10.428Z,25.13
2023-01-20T00:15:37.190Z,26.63
2023-01-20T00:18:04.027Z,26.10
2023-01-20T00:20:30.755Z,25.83
2023-01-20T00:22:57.520Z,26.50
2023-01-20T00:25:24.253Z,26.95
2023-01-20T00:27:54.558Z,26.75
2023-01-20T00:30:22.048Z,25.95
2023-01-20T00:32:48.788Z,26.20
2023-01-20T00:35:15.783Z,26.33
2023-01-20T00:37:43.642Z,25.08
2023-01-20T00:40:10.959Z,25.65
2023-01-20T00:42:37.625Z,24.63
2023-01-20T00:45:04.797Z,25.20
2023-01-20T00:47:31.781Z,25.35
2023-01-20T00:49:58.458Z,25.05
2023-01-20T00:52:25.177Z,25.05
2023-01-20T00:54:51.884Z,24.25
2023-01-20T00:57:18.732Z,24.45
2023-01-20T00:59:45.466Z,24.60
2023-01-20T01:02:12.261Z,23.98
2023-01-20T01:04:38.967Z,24.80
2023-01-20T01:07:05.692Z,26.00
2023-01-20T01:09:32.677Z,24.15
2023-01-20T01:11:59.387Z,23.50
2023-01-20T01:14:26.150Z,23.20
2023-01-20T01:16:52.890Z,23.27
2023-01-20T01:19:19.908Z,23.23
2023-01-20T01:21:46.616Z,23.67
2023-01-20T01:24:14.134Z,24.05
2023-01-20T01:26:40.955Z,24.08
2023-01-20T01:29:07.680Z,23.35
2023-01-20T01:31:34.495Z,23.38
2023-01-20T01:34:01.185Z,23.00
2023-01-20T01:36:28.025Z,23.63
2023-01-20T01:38:58.423Z,23.80
2023-01-20T01:41:26.265Z,22.65
2023-01-20T01:44:03.988Z,22.48
2023-01-20T01:46:31.341Z,22.52
2023-01-20T01:49:01.743Z,22.40
2023-01-20T01:51:32.526Z,22.08
2023-01-20T01:54:13.301Z,20.60
2023-01-20T01:56:43.237Z,21.70
2023-01-20T01:59:11.982Z,20.40
2023-01-20T02:01:40.869Z,19.75
2023-01-20T02:04:13.819Z,19.45
2023-01-20T02:06:45.079Z,18.38
2023-01-20T02:09:12.431Z,17.83
2023-01-20T02:12:01.064Z,16.90
2023-01-20T02:14:35.885Z,15.48
2023-01-20T02:17:17.682Z,15.35
2023-01-20T02:20:02.846Z,14.93
2023-01-20T02:22:41.531Z,14.57
2023-01-20T02:25:41.313Z,14.13
2023-01-20T02:28:38.083Z,14.02
2023-01-20T02:31:23.254Z,15.10
2023-01-20T02:34:01.047Z,15.20
2023-01-20T02:36:55.709Z,16.45
2023-01-20T02:39:52.190Z,16.20
2023-01-20T02:42:39.489Z,16.63
2023-01-20T02:45:24.120Z,16.50
2023-01-20T02:48:01.649Z,18.55
2023-01-20T02:50:37.792Z,17.52
2023-01-20T02:53:07.537Z,18.42
2023-01-20T02:55:41.425Z,18.52
2023-01-20T02:58:14.005Z,18.73
2023-01-20T03:00:46.153Z,18.80
2023-01-20T03:03:18.139Z,17.98
2023-01-20T03:05:54.578Z,16.77
2023-01-20T03:08:23.651Z,17.23
2023-01-20T03:10:54.474Z,15.82
2023-01-20T03:13:45.760Z,16.60
2023-01-20T03:16:18.830Z,16.08
2023-01-20T03:18:46.011Z,15.20
2023-01-20T03:21:14.162Z,16.23
2023-01-20T03:23:44.511Z,14.48
2023-01-20T03:26:13.625Z,15.15
2023-01-20T03:28:44.573Z,15.70
2023-01-20T03:31:17.766Z,15.10
2023-01-20T03:33:46.576Z,15.68
2023-01-20T03:36:16.065Z,15.82
2023-01-20T03:38:44.840Z,16.35
2023-01-20T03:41:14.527Z,15.95
2023-01-20T03:43:54.515Z,16.77
2023-01-20T03:46:27.298Z,16.50
2023-01-20T03:49:28.381Z,17.55
2023-01-20T03:52:03.787Z,17.45
2023-01-20T03:55:00.163Z,17.88
2023-01-20T03:57:35.354Z,17.38
2023-01-20T04:00:05.328Z,19.77
2023-01-20T04:02:33.764Z,18.95
2023-01-20T04:05:03.342Z,19.70
2023-01-20T04:07:32.216Z,19.90
2023-01-20T04:10:06.157Z,20.25
2023-01-20T04:12:33.207Z,21.98
2023-01-20T04:15:01.078Z,22.63
2023-01-20T04:17:29.303Z,23.02
2023-01-20T04:19:57.311Z,24.02
2023-01-20T04:22:48.637Z,23.38
2023-01-20T04:25:20.577Z,24.52
2023-01-20T04:27:47.441Z,24.17
2023-01-20T04:30:14.905Z,25.38
2023-01-20T04:32:41.664Z,25.90
2023-01-20T04:35:12.902Z,25.67
2023-01-20T04:37:40.024Z,26.00
2023-01-20T04:40:07.236Z,25.13
2023-01-20T04:42:33.935Z,25.17
2023-01-20T04:45:00.748Z,26.55
2023-01-20T04:47:33.747Z,26.27
2023-01-20T04:50:00.459Z,26.08
2023-01-20T04:52:27.239Z,26.98
2023-01-20T04:54:53.963Z,26.77
2023-01-20T04:57:20.796Z,26.50
2023-01-20T04:59:47.503Z,23.45
2023-01-20T05:02:14.239Z,24.67
2023-01-20T05:04:41.007Z,23.90
2023-01-20T05:07:07.710Z,24.25
2023-01-20T05:09:34.403Z,24.17
2023-01-20T05:12:01.122Z,23.90
2023-01-20T05:14:27.853Z,22.25
2023-01-20T05:16:54.799Z,23.80
2023-01-20T05:19:21.461Z,23.63
2023-01-20T05:21:48.186Z,24.33
2023-01-20T05:24:14.832Z,21.65
2023-01-20T05:26:41.699Z,19.88
2023-01-20T05:29:09.210Z,18.50
2023-01-20T05:31:37.585Z,18.80
2023-01-20T05:34:05.022Z,19.15
2023-01-20T05:36:32.793Z,19.42
2023-01-20T05:38:59.461Z,19.38
2023-01-20T05:41:26.165Z,19.77
2023-01-20T05:43:53.971Z,19.73
2023-01-20T05:46:21.275Z,19.80
2023-01-20T05:48:48.184Z,19.20
2023-01-20T05:51:14.841Z,18.42
2023-01-20T05:53:41.532Z,16.67
2023-01-20T05:56:08.406Z,16.58
2023-01-20T05:58:35.225Z,16.25
2023-01-20T06:01:10.791Z,16.35
2023-01-20T06:03:38.057Z,16.52
2023-01-20T06:06:14.122Z,16.27
2023-01-20T06:08:41.457Z,17.85
2023-01-20T06:11:08.173Z,17.10
2023-01-20T06:13:39.639Z,17.98
2023-01-20T06:16:07.504Z,18.08
2023-01-20T06:18:34.898Z,18.15
2023-01-20T06:21:01.622Z,18.98
2023-01-20T06:23:28.614Z,18.23
2023-01-20T06:25:59.463Z,16.83
2023-01-20T06:28:26.440Z,17.90
2023-01-20T06:30:59.991Z,17.23
2023-01-20T06:33:26.953Z,17.20
2023-01-20T06:35:55.539Z,17.23
2023-01-20T06:38:28.193Z,17.42
2023-01-20T06:41:07.519Z,17.95
2023-01-20T06:43:35.352Z,18.65
2023-01-20T06:46:04.121Z,21.00
2023-01-20T06:48:31.772Z,20.67
2023-01-20T06:51:06.669Z,20.90
2023-01-20T06:53:34.129Z,20.70
2023-01-20T06:56:01.421Z,20.90
2023-01-20T06:58:31.183Z,20.73
2023-01-20T07:00:58.690Z,20.38
2023-01-20T07:03:25.449Z,21.17
2023-01-20T07:06:05.790Z,20.45
2023-01-20T07:08:32.572Z,21.02
2023-01-20T07:10:59.228Z,17.48
2023-01-20T07:13:25.874Z,15.88
2023-01-20T07:15:53.183Z,15.02
2023-01-20T07:18:19.932Z,15.50
2023-01-20T07:20:46.667Z,16.77
2023-01-20T07:23:13.808Z,15.75
2023-01-20T07:25:40.481Z,16.13
2023-01-20T07:28:07.351Z,16.92
2023-01-20T07:30:34.024Z,18.08
2023-01-20T07:33:00.724Z,17.45
2023-01-20T07:35:27.471Z,19.52
2023-01-20T07:37:54.309Z,19.73
2023-01-20T07:40:21.304Z,21.65
2023-01-20T07:42:47.997Z,21.08
2023-01-20T07:45:16.278Z,20.98
2023-01-20T07:47:43.323Z,21.45
2023-01-20T07:50:10.644Z,20.63
2023-01-20T07:52:37.342Z,23.52
2023-01-20T07:55:04.292Z,21.48
2023-01-20T07:57:31.177Z,24.45
2023-01-20T07:59:57.929Z,23.48
2023-01-20T08:02:24.660Z,23.33
2023-01-20T08:04:51.371Z,23.08
2023-01-20T08:07:18.257Z,22.80
2023-01-20T08:09:45.005Z,23.13
2023-01-20T08:12:11.862Z,24.60
2023-01-20T08:14:38.523Z,24.65
2023-01-20T08:17:05.314Z,22.85
2023-01-20T08:19:31.945Z,23.80
2023-01-20T08:21:58.644Z,22.40
2023-01-20T08:24:25.446Z,22.42
2023-01-20T08:26:52.318Z,22.25
2023-01-20T08:29:19.013Z,24.27
2023-01-20T08:31:45.929Z,23.65
2023-01-20T08:34:12.804Z,25.15
2023-01-20T08:36:41.260Z,25.02
2023-01-20T08:39:10.433Z,25.15
2023-01-20T08:41:39.267Z,23.75
2023-01-20T08:44:07.757Z,24.63
2023-01-20T08:46:35.079Z,25.52
2023-01-20T08:49:01.829Z,24.35
2023-01-20T08:51:31.315Z,26.23
2023-01-20T08:53:58.607Z,24.77
2023-01-20T08:56:25.679Z,24.38
2023-01-20T08:58:53.892Z,25.55
2023-01-20T09:01:26.717Z,26.50
2023-01-20T09:04:05.424Z,27.45
2023-01-20T09:06:46.220Z,25.30
2023-01-20T09:09:15.067Z,23.75
2023-01-20T09:11:44.811Z,24.20
2023-01-20T09:14:11.682Z,22.20
2023-01-20T09:16:38.512Z,23.42
2023-01-20T09:19:05.212Z,20.95
2023-01-20T09:21:31.949Z,23.35
2023-01-20T09:23:58.655Z,23.00
2023-01-20T09:26:35.211Z,22.23
2023-01-20T09:29:09.399Z,21.00
2023-01-20T09:31:46.047Z,20.02
2023-01-20T09:34:19.413Z,18.38
2023-01-20T09:36:49.841Z,18.70
2023-01-20T09:39:36.092Z,17.50
2023-01-20T09:42:45.401Z,17.73
2023-01-20T09:45:24.754Z,17.95
2023-01-20T09:47:54.061Z,17.83
2023-01-20T09:50:51.654Z,19.05
2023-01-20T09:53:41.665Z,18.90
2023-01-20T09:56:22.844Z,20.27
2023-01-20T09:58:58.873Z,20.15
2023-01-20T10:01:33.234Z,19.20
2023-01-20T10:04:26.049Z,20.30
2023-01-20T10:07:03.961Z,19.63
2023-01-20T10:09:45.573Z,19.80
2023-01-20T10:12:21.064Z,20.08
2023-01-20T10:15:09.444Z,20.17
2023-01-20T10:17:54.083Z,20.45
2023-01-20T10:20:33.284Z,19.65
2023-01-20T10:23:10.941Z,19.88
2023-01-20T10:25:50.126Z,20.13
2023-01-20T10:28:27.910Z,19.50
2023-01-20T10:30:58.312Z,19.23
2023-01-20T10:33:38.683Z,18.92
2023-01-20T10:36:12.519Z,17.58
2023-01-20T10:38:39.371Z,16.73
2023-01-20T10:41:14.611Z,15.88
2023-01-20T10:43:42.805Z,15.50
2023-01-20T10:46:43.524Z,15.07
2023-01-20T10:49:25.548Z,14.68
2023-01-20T10:54:52.279Z,14.40
2023-01-20T10:57:19.426Z,15.15
2023-01-20T10:59:50.488Z,15.15
2023-01-20T11:02:29.090Z,12.48
2023-01-20T11:05:16.468Z,9.70
2023-01-20T11:07:44.540Z,2.30
2023-01-20T11:10:22.053Z,4.20
2023-01-20T11:13:00.499Z,3.22
2023-01-20T11:15:35.392Z,1.83
2023-01-20T11:18:17.135Z,1.85
2023-01-20T11:21:08.049Z,2.58
2023-01-20T11:23:49.264Z,3.50
2023-01-20T11:26:27.849Z,3.65
2023-01-20T11:28:57.177Z,2.40
2023-01-20T11:31:36.013Z,2.15
2023-01-20T11:34:29.186Z,2.00
2023-01-20T11:37:05.165Z,2.15
2023-01-20T11:39:50.147Z,2.20
2023-01-20T11:42:25.880Z,2.15
2023-01-20T11:45:08.514Z,2.15
2023-01-20T11:47:46.099Z,2.13
2023-01-20T11:50:35.771Z,1.58
2023-01-20T11:53:20.942Z,1.40
2023-01-20T11:56:18.680Z,1.48
2023-01-20T11:58:57.553Z,1.50
2023-01-20T12:01:58.129Z,2.05
2023-01-20T12:04:41.182Z,1.90
2023-01-20T12:07:11.259Z,4.28
2023-01-20T12:09:43.138Z,0.77
2023-01-20T12:12:15.931Z,1.13
2023-01-20T12:14:56.339Z,1.30
2023-01-20T12:17:33.044Z,0.95
2023-01-20T12:20:10.049Z,1.45
2023-01-20T12:23:14.161Z,1.42
2023-01-20T12:25:49.232Z,1.02
2023-01-20T12:28:28.986Z,1.02
2023-01-20T12:31:04.494Z,1.10
2023-01-20T12:33:35.152Z,1.00
2023-01-20T12:36:04.591Z,1.08
2023-01-20T12:38:43.465Z,1.10
2023-01-20T12:41:24.852Z,1.10
2023-01-20T12:44:11.890Z,1.00
2023-01-20T12:46:50.182Z,0.95
2023-01-20T12:49:47.296Z,2.17
2023-01-20T12:52:25.995Z,3.60
2023-01-20T12:55:21.936Z,2.78
2023-01-20T12:58:03.273Z,2.83
2023-01-20T13:00:35.786Z,2.67
2023-01-20T13:03:02.429Z,2.05
2023-01-20T13:05:41.148Z,1.75
2023-01-20T13:08:36.369Z,3.13
2023-01-20T13:11:44.497Z,3.00
2023-01-20T13:14:26.124Z,2.65
2023-01-20T13:17:28.173Z,2.58
2023-01-20T13:19:59.209Z,2.20
2023-01-20T13:22:26.242Z,2.25
2023-01-20T13:24:57.516Z,1.92
2023-01-20T13:27:34.949Z,2.20
2023-01-20T13:30:05.364Z,2.60
2023-01-20T13:32:43.705Z,2.45
2023-01-20T13:35:25.419Z,2.10
2023-01-20T13:37:57.645Z,1.80
2023-01-20T13:40:35.969Z,1.65
2023-01-20T13:43:26.249Z,2.60
2023-01-20T13:46:05.130Z,1.67
2023-01-20T13:48:34.054Z,1.23
2023-01-20T13:51:15.958Z,2.55
2023-01-20T13:56:34.323Z,3.20
2023-01-20T13:59:01.139Z,3.47
2023-01-20T14:01:28.360Z,3.00
2023-01-20T14:04:05.587Z,3.00
2023-01-20T14:06:35.614Z,3.20
2023-01-20T14:09:03.483Z,3.50
2023-01-20T14:11:31.234Z,3.53
2023-01-20T14:14:05.716Z,3.60
2023-01-20T14:16:35.480Z,3.58
2023-01-20T14:19:17.849Z,3.72
2023-01-20T14:21:44.657Z,3.85
2023-01-20T14:24:32.329Z,3.80
2023-01-20T14:27:08.531Z,3.90
2023-01-20T14:29:35.220Z,4.15
2023-01-20T14:32:01.999Z,4.13
2023-01-20T14:34:30.706Z,4.22
2023-01-20T14:36:59.860Z,3.53
2023-01-20T14:39:29.127Z,3.50
2023-01-20T14:41:58.005Z,3.33
2023-01-20T14:44:32.535Z,3.88
2023-01-20T14:47:01.977Z,4.63
2023-01-20T14:49:35.421Z,5.00
2023-01-20T14:52:03.724Z,5.45
2023-01-20T14:54:44.678Z,6.10
2023-01-20T14:57:19.382Z,6.45
2023-01-20T14:59:46.386Z,6.45
2023-01-20T15:02:28.947Z,5.97
2023-01-20T15:04:56.168Z,6.28
2023-01-20T15:07:24.574Z,6.88
2023-01-20T15:10:03.060Z,7.97
2023-01-20T15:12:32.911Z,9.20
2023-01-20T15:15:26.698Z,10.07
2023-01-20T15:18:11.667Z,9.43
2023-01-20T15:20:41.804Z,9.82
2023-01-20T15:23:29.898Z,9.63
2023-01-20T15:25:56.820Z,10.70
2023-01-20T15:28:29.361Z,10.77
2023-01-20T15:30:58.808Z,11.27
2023-01-20T15:33:26.174Z,12.73
2023-01-20T15:35:58.424Z,14.18
2023-01-20T15:38:30.932Z,15.02
2023-01-20T15:40:57.834Z,15.18
2023-01-20T15:43:24.767Z,14.60
2023-01-20T15:45:51.459Z,14.13
2023-01-20T15:48:22.223Z,14.95
2023-01-20T15:50:49.188Z,13.65
2023-01-20T15:53:16.019Z,12.68
2023-01-20T15:55:49.109Z,12.55
2023-01-20T15:58:26.092Z,11.60
2023-01-20T16:00:56.043Z,11.90
2023-01-20T16:03:26.324Z,13.30
2023-01-20T16:05:54.608Z,12.80
2023-01-20T16:08:35.677Z,13.13
2023-01-20T16:11:05.532Z,13.23
2023-01-20T16:13:32.757Z,13.63
2023-01-20T16:16:02.332Z,15.25
2023-01-20T16:18:30.302Z,17.10
2023-01-20T16:20:57.152Z,17.90
2023-01-20T16:23:26.388Z,17.65
2023-01-20T16:25:54.307Z,16.65
2023-01-20T16:28:23.565Z,16.25
2023-01-20T16:30:53.950Z,19.08
2023-01-20T16:33:24.855Z,22.20
2023-01-20T16:35:54.168Z,23.50
2023-01-20T16:38:25.493Z,23.88
2023-01-20T16:41:04.192Z,24.77
2023-01-20T16:43:30.907Z,24.52
2023-01-20T16:45:57.689Z,26.33
2023-01-20T16:48:25.871Z,24.38
2023-01-20T16:50:53.200Z,24.65
2023-01-20T16:53:22.407Z,23.95
2023-01-20T16:55:49.706Z,23.17
2023-01-20T16:58:17.185Z,24.83
2023-01-20T17:00:48.975Z,24.73
2023-01-20T17:05:42.591Z,22.48
2023-01-20T17:08:09.546Z,24.52
2023-01-20T17:10:36.359Z,23.15
2023-01-20T17:13:03.085Z,23.85
2023-01-20T17:15:29.916Z,24.17
2023-01-20T17:17:58.329Z,21.70
2023-01-20T17:20:26.507Z,23.83
2023-01-20T17:22:55.649Z,22.35
2023-01-20T17:25:23.055Z,23.42
2023-01-20T17:27:50.153Z,23.73
2023-01-20T17:30:17.355Z,24.20
2023-01-20T17:32:48.334Z,23.75
2023-01-20T17:35:16.241Z,24.65
2023-01-20T17:37:44.178Z,23.75
2023-01-20T17:40:12.391Z,23.38
2023-01-20T17:42:39.181Z,22.67
2023-01-20T17:45:06.476Z,23.55
2023-01-20T17:47:33.421Z,22.48
2023-01-20T17:50:00.085Z,22.52
2023-01-20T17:52:28.245Z,22.88
2023-01-20T17:54:55.015Z,23.13
2023-01-20T17:57:21.917Z,22.05
2023-01-20T17:59:48.775Z,22.65
2023-01-20T18:02:18.457Z,20.48
2023-01-20T18:04:45.261Z,20.35
2023-01-20T18:07:12.195Z,19.45
2023-01-20T18:09:39.030Z,18.88
2023-01-20T18:12:06.381Z,18.65
2023-01-20T18:14:33.038Z,18.55
2023-01-20T18:16:59.979Z,16.65
2023-01-20T18:19:26.782Z,17.02
2023-01-20T18:21:53.463Z,17.58
2023-01-20T18:24:20.199Z,17.52
2023-01-20T18:26:47.096Z,17.15
2023-01-20T18:29:16.437Z,17.58
2023-01-20T18:31:45.218Z,17.60
2023-01-20T18:34:15.644Z,16.80
2023-01-20T18:36:46.257Z,18.33
2023-01-20T18:39:31.177Z,18.55
2023-01-20T18:41:57.957Z,18.50
2023-01-20T18:44:25.142Z,18.60
2023-01-20T18:46:54.815Z,19.10
2023-01-20T18:49:26.798Z,18.05
2023-01-20T18:51:58.725Z,17.75
2023-01-20T18:54:26.278Z,19.10
2023-01-20T18:56:53.158Z,19.38
2023-01-20T18:59:25.374Z,19.52
2023-01-20T19:01:52.086Z,20.98
2023-01-20T19:04:18.811Z,20.58
2023-01-20T19:06:47.890Z,21.13
2023-01-20T19:09:16.788Z,20.30
2023-01-20T19:11:43.603Z,20.88
2023-01-20T19:14:17.930Z,22.48
2023-01-20T19:16:49.402Z,20.98
2023-01-20T19:19:19.086Z,22.38
2023-01-20T19:21:46.299Z,21.55
2023-01-20T19:24:20.057Z,22.42
2023-01-20T19:26:52.568Z,22.63
2023-01-20T19:29:19.742Z,22.83
2023-01-20T19:31:49.234Z,22.27
2023-01-20T19:34:16.165Z,23.90
2023-01-20T19:36:42.946Z,23.88
2023-01-20T19:39:09.820Z,24.85
2023-01-20T19:41:39.241Z,25.13
2023-01-20T19:44:07.748Z,26.98
2023-01-20T19:46:39.336Z,27.25
2023-01-20T19:49:06.915Z,25.65
2023-01-20T19:51:34.047Z,27.40
2023-01-20T19:54:01.735Z,26.50
2023-01-20T19:56:31.040Z,27.92
2023-01-20T19:59:00.767Z,27.65
2023-01-20T20:01:35.672Z,27.25
2023-01-20T20:04:07.721Z,28.60
2023-01-20T20:06:39.326Z,27.67
2023-01-20T20:09:11.732Z,29.40
2023-01-20T20:11:38.904Z,29.13
2023-01-20T20:14:07.909Z,30.95
2023-01-20T20:16:36.629Z,31.08
2023-01-20T20:19:04.495Z,32.10
2023-01-20T20:21:31.331Z,28.80
2023-01-20T20:24:02.436Z,30.42
2023-01-20T20:26:31.284Z,30.58
2023-01-20T20:29:05.235Z,31.65
2023-01-20T20:31:34.401Z,32.80
2023-01-20T20:34:03.111Z,32.05
2023-01-20T20:36:32.869Z,31.02
2023-01-20T20:39:01.153Z,32.83
2023-01-20T20:41:31.419Z,31.15
2023-01-20T20:44:01.887Z,32.63
2023-01-20T20:46:29.813Z,30.17
2023-01-20T20:49:03.853Z,30.90
2023-01-20T20:51:32.609Z,32.25
2023-01-20T20:54:02.993Z,30.52
2023-01-20T20:56:33.720Z,30.52
2023-01-20T20:59:06.276Z,32.10
2023-01-20T21:01:36.837Z,31.13
2023-01-20T21:04:06.533Z,29.30
2023-01-20T21:06:40.786Z,32.25
2023-01-20T21:09:07.563Z,30.55
2023-01-20T21:11:34.351Z,31.20
2023-01-20T21:14:01.040Z,31.42
2023-01-20T21:16:28.340Z,32.17
2023-01-20T21:18:56.556Z,32.55
2023-01-20T21:21:24.395Z,30.70
2023-01-20T21:23:56.756Z,31.50
2023-01-20T21:26:25.079Z,31.23
2023-01-20T21:28:52.227Z,32.83
2023-01-20T21:31:22.225Z,30.13
2023-01-20T21:33:58.193Z,31.20
2023-01-20T21:36:26.443Z,31.40
2023-01-20T21:38:53.326Z,30.83
2023-01-20T21:41:20.360Z,31.17
2023-01-20T21:44:06.714Z,33.05
2023-01-20T21:46:42.307Z,30.88
2023-01-20T21:49:27.991Z,30.35
2023-01-20T21:52:14.363Z,31.55
2023-01-20T21:54:41.795Z,31.10
2023-01-20T21:57:09.021Z,31.23
2023-01-20T21:59:36.013Z,30.98
2023-01-20T22:02:02.752Z,31.83
2023-01-20T22:04:29.516Z,29.75
2023-01-20T22:06:56.254Z,30.17
2023-01-20T22:09:23.068Z,30.98
2023-01-20T22:11:50.048Z,29.48
2023-01-20T22:14:16.757Z,30.58
2023-01-20T22:16:43.700Z,30.77
2023-01-20T22:19:14.950Z,30.33
2023-01-20T22:21:42.234Z,30.98
2023-01-20T22:24:09.442Z,32.28
2023-01-20T22:26:36.215Z,31.42
2023-01-20T22:29:03.152Z,31.08
2023-01-20T22:31:31.709Z,30.55
2023-01-20T22:33:59.338Z,31.30
2023-01-20T22:36:26.252Z,30.30
2023-01-20T22:38:53.601Z,31.10
2023-01-20T22:41:21.280Z,30.38
2023-01-20T22:43:50.250Z,32.15
2023-01-20T22:46:19.191Z,31.45
2023-01-20T22:48:46.651Z,32.53
2023-01-20T22:51:20.381Z,30.60
2023-01-20T22:53:47.417Z,30.80
2023-01-20T22:56:17.367Z,31.83
2023-01-20T22:58:44.550Z,33.08
2023-01-20T23:01:13.436Z,31.90
2023-01-20T23:03:40.544Z,31.52
2023-01-20T23:06:08.563Z,32.67
2023-01-20T23:08:35.473Z,32.25
2023-01-20T23:11:09.409Z,31.85
2023-01-20T23:13:36.568Z,33.67
2023-01-20T23:16:04.780Z,33.35
2023-01-20T23:18:32.091Z,31.88
2023-01-20T23:20:58.911Z,33.58
2023-01-20T23:23:26.871Z,32.35
2023-01-20T23:26:13.218Z,32.63
2023-01-20T23:28:40.044Z,32.67
2023-01-20T23:31:08.537Z,33.95
2023-01-20T23:33:35.307Z,31.95
2023-01-20T23:36:14.395Z,33.90
2023-01-20T23:38:42.364Z,33.15
2023-01-20T23:41:09.597Z,33.45
2023-01-20T23:43:36.261Z,32.45
2023-01-20T23:46:05.664Z,34.08
2023-01-20T23:48:33.636Z,33.50
2023-01-20T23:51:01.786Z,33.20
2023-01-20T23:53:30.457Z,33.72
2023-01-20T23:56:00.975Z,33.17
2023-01-20T23:58:28.099Z,33.55
